Time;durP1;ratioP1;P1;durP2;ratioP2;P2;SDS_P1;SDS_P2;PMS_P1;PMS_P2;Temp;Humidity;BMP_temperature;BMP_pressure;BME280_temperature;BME280_humidity;BME280_pressure;Samples;Min_cycle;Max_cycle;Signal;HPM_P1;HPM_P2
2021/07/23 00:00:53;;;;;;;8.52;7.72;;;;;;;19.78;71.29;98803.88;5021270;28;102761;-64
2021/07/23 00:03:22;;;;;;;10.57;9.50;;;;;;;19.72;72.06;98793.81;5023443;28;102697;-64
2021/07/23 00:05:50;;;;;;;8.55;7.70;;;;;;;19.70;71.84;98798.50;5023266;28;103148;-64
2021/07/23 00:08:19;;;;;;;7.28;6.68;;;;;;;19.66;71.83;98792.63;5020696;28;103319;-64
2021/07/23 00:10:47;;;;;;;8.25;7.45;;;;;;;19.63;71.88;98789.44;5019986;28;103894;-64
2021/07/23 00:13:15;;;;;;;7.72;7.03;;;;;;;19.57;72.35;98790.09;5022114;28;102936;-64
2021/07/23 00:15:43;;;;;;;8.23;7.47;;;;;;;19.54;72.32;98785.91;5020467;28;103157;-64
2021/07/23 00:18:11;;;;;;;7.53;6.82;;;;;;;19.52;72.33;98787.09;5019498;28;103202;-64
2021/07/23 00:20:39;;;;;;;8.45;7.65;;;;;;;19.50;72.46;98794.47;5022261;28;102739;-63
2021/07/23 00:23:07;;;;;;;8.05;7.35;;;;;;;19.48;71.97;98791.94;5022145;28;104235;-63
2021/07/23 00:25:37;;;;;;;7.78;6.97;;;;;;;19.52;72.27;98787.09;5020336;28;104499;-65
2021/07/23 00:28:06;;;;;;;11.32;8.85;;;;;;;19.46;72.62;98793.09;5019793;28;103324;-65
2021/07/23 00:30:34;;;;;;;8.48;7.70;;;;;;;19.42;72.42;98787.25;5018017;28;102670;-65
2021/07/23 00:33:03;;;;;;;9.52;8.63;;;;;;;19.41;72.55;98777.53;5021297;28;102616;-65
2021/07/23 00:35:31;;;;;;;8.65;7.85;;;;;;;19.43;72.39;98785.38;5019218;28;103635;-64
2021/07/23 00:37:59;;;;;;;7.88;7.15;;;;;;;19.40;72.47;98777.69;5017132;27;103533;-64
2021/07/23 00:40:28;;;;;;;8.00;6.80;;;;;;;19.36;72.29;98779.00;5021272;27;102690;-65
2021/07/23 00:43:00;;;;;;;7.68;6.97;;;;;;;19.32;72.60;98780.31;5019253;28;102684;-65
2021/07/23 00:45:28;;;;;;;10.63;8.65;;;;;;;19.20;73.42;98787.00;5021251;28;104494;-65
2021/07/23 00:48:01;;;;;;;8.05;7.25;;;;;;;19.11;74.08;98772.75;5018930;28;103431;-64
2021/07/23 00:50:32;;;;;;;7.57;6.93;;;;;;;19.13;73.62;98780.59;5015997;28;102728;-64
2021/07/23 00:53:01;;;;;;;8.93;8.02;;;;;;;19.13;73.75;98777.91;5017473;28;102975;-64
2021/07/23 00:55:29;;;;;;;10.45;9.43;;;;;;;18.93;75.17;98780.88;5020078;28;104058;-64
2021/07/23 00:57:58;;;;;;;8.55;7.65;;;;;;;18.80;75.56;98776.97;5019800;28;103163;-64
2021/07/23 01:00:30;;;;;;;8.55;7.68;;;;;;;18.95;73.87;98772.66;5019446;28;102727;-64
2021/07/23 01:03:01;;;;;;;10.40;9.38;;;;;;;18.99;74.40;98779.38;5014381;28;102719;-65
2021/07/23 01:05:31;;;;;;;7.53;6.82;;;;;;;18.97;74.35;98781.38;5020642;28;103393;-64
2021/07/23 01:08:01;;;;;;;8.85;7.93;;;;;;;18.94;75.05;98771.84;5019008;28;103561;-63
2021/07/23 01:10:37;;;;;;;10.00;9.13;;;;;;;18.80;76.04;98764.44;5019988;28;102990;-65
2021/07/23 01:13:17;;;;;;;9.43;8.52;;;;;;;18.74;76.02;98774.94;5019270;28;102739;-63
2021/07/23 01:15:48;;;;;;;10.23;8.57;;;;;;;18.68;76.58;98776.41;5018871;28;103267;-63
2021/07/23 01:18:16;;;;;;;11.48;10.25;;;;;;;18.58;76.84;98778.38;5017529;28;103246;-63
2021/07/23 01:20:53;;;;;;;9.82;8.93;;;;;;;18.49;77.60;98768.63;5018059;28;102669;-63
2021/07/23 01:23:27;;;;;;;9.02;8.23;;;;;;;18.47;77.54;98767.88;5020004;28;102830;-63
2021/07/23 01:25:56;;;;;;;7.80;7.10;;;;;;;18.56;76.54;98772.31;5020679;28;103426;-63
2021/07/23 01:28:27;;;;;;;8.35;7.55;;;;;;;18.60;76.32;98771.03;5017200;28;103141;-63
2021/07/23 01:31:01;;;;;;;10.95;9.85;;;;;;;18.53;77.39;98769.97;5019716;28;102671;-63
2021/07/23 01:33:37;;;;;;;7.07;6.43;;;;;;;18.39;78.24;98767.84;5016088;28;102715;-64
2021/07/23 01:36:08;;;;;;;7.82;7.10;;;;;;;18.34;78.74;98762.97;5019541;27;103391;-63
2021/07/23 01:38:46;;;;;;;11.10;9.98;;;;;;;18.26;78.98;98764.75;5017484;28;103260;-64
2021/07/23 01:41:16;;;;;;;8.35;7.57;;;;;;;18.30;78.39;98761.59;5021835;28;102678;-64
2021/07/23 01:43:46;;;;;;;7.90;7.20;;;;;;;18.29;78.42;98761.78;5015781;28;102774;-64
2021/07/23 01:46:14;;;;;;;7.97;7.00;;;;;;;18.26;78.62;98759.41;5016636;28;103179;-65
2021/07/23 01:48:42;;;;;;;10.05;9.15;;;;;;;18.23;78.54;98765.06;5021309;28;103345;-65
2021/07/23 01:51:28;;;;;;;8.15;7.35;;;;;;;18.17;78.54;98763.88;5023241;27;102522;-65
2021/07/23 01:53:58;;;;;;;8.10;7.30;;;;;;;18.12;79.05;98768.00;5022577;28;102884;-63
2021/07/23 01:56:29;;;;;;;8.00;6.78;;;;;;;18.09;79.04;98768.31;5023006;28;103857;-65
2021/07/23 01:59:01;;;;;;;6.95;6.30;;;;;;;18.11;78.96;98766.31;5020852;28;104347;-63
2021/07/23 02:01:35;;;;;;;8.18;7.47;;;;;;;18.06;79.05;98765.97;5016133;27;102796;-63
2021/07/23 02:04:16;;;;;;;9.77;8.77;;;;;;;18.03;79.30;98755.56;5020859;27;102849;-63
2021/07/23 02:06:44;;;;;;;7.93;7.20;;;;;;;18.04;79.05;98763.47;5020867;28;103575;-63
2021/07/23 02:09:14;;;;;;;9.90;8.95;;;;;;;18.04;79.23;98765.28;5021900;28;103189;-63
2021/07/23 02:11:52;;;;;;;9.25;7.75;;;;;;;18.02;78.93;98761.94;5019490;28;102663;-63
2021/07/23 02:14:21;;;;;;;9.20;7.97;;;;;;;17.94;79.75;98760.88;5019274;28;102691;-64
2021/07/23 02:16:50;;;;;;;8.07;7.28;;;;;;;17.91;79.56;98755.81;5022650;28;103951;-65
2021/07/23 02:19:18;;;;;;;8.48;7.57;;;;;;;17.91;79.36;98752.31;5019272;28;103427;-65
2021/07/23 02:21:54;;;;;;;8.18;7.38;;;;;;;17.90;79.21;98751.50;5023979;28;103009;-65
2021/07/23 02:24:24;;;;;;;8.32;7.43;;;;;;;17.91;79.14;98750.47;5020914;28;102587;-65
2021/07/23 02:26:53;;;;;;;8.23;6.70;;;;;;;17.91;79.15;98755.81;5005028;28;104482;-62
2021/07/23 02:29:22;;;;;;;8.55;7.72;;;;;;;17.88;79.69;98745.44;5020563;28;103886;-61
2021/07/23 02:31:50;;;;;;;9.13;8.18;;;;;;;17.76;80.64;98743.19;5020935;28;102637;-61
2021/07/23 02:34:23;;;;;;;7.63;6.93;;;;;;;17.77;80.14;98748.38;5022895;28;102859;-63
2021/07/23 02:36:54;;;;;;;7.53;6.72;;;;;;;17.83;79.61;98746.91;5019881;27;103347;-62
2021/07/23 02:39:25;;;;;;;7.38;6.45;;;;;;;17.86;79.51;98747.44;5024473;28;103297;-62
2021/07/23 02:42:00;;;;;;;9.88;8.70;;;;;;;17.66;81.31;98740.59;5020932;28;102616;-63
2021/07/23 02:44:33;;;;;;;10.93;9.93;;;;;;;17.61;81.53;98745.56;5022572;28;102679;-62
2021/07/23 02:47:02;;;;;;;10.00;9.00;;;;;;;17.59;81.60;98744.03;5022093;28;103498;-63
2021/07/23 02:49:33;;;;;;;9.27;8.38;;;;;;;17.58;81.91;98740.53;5020675;28;103027;-62
2021/07/23 02:52:01;;;;;;;9.73;8.85;;;;;;;17.61;81.30;98742.91;5021480;28;102671;-62
2021/07/23 02:54:32;;;;;;;10.50;9.10;;;;;;;17.61;81.66;98742.91;5022969;28;102585;-61
2021/07/23 02:57:00;;;;;;;9.02;8.13;;;;;;;17.55;81.57;98738.16;5023353;28;104502;-61
2021/07/23 02:59:33;;;;;;;8.80;7.95;;;;;;;17.57;81.39;98730.81;5021502;28;106328;-61
2021/07/23 03:02:01;;;;;;;9.25;8.32;;;;;;;17.60;81.18;98735.88;5016915;28;102613;-61
2021/07/23 03:04:31;;;;;;;7.15;6.43;;;;;;;17.67;80.38;98736.94;5021886;28;102784;-60
2021/07/23 03:06:59;;;;;;;7.22;6.50;;;;;;;17.70;80.70;98733.97;5021924;28;103363;-61
2021/07/23 03:09:28;;;;;;;8.35;7.63;;;;;;;17.67;81.15;98733.44;5017206;28;103692;-62
2021/07/23 03:11:59;;;;;;;7.18;6.47;;;;;;;17.69;80.55;98724.25;5023068;28;102688;-62
2021/07/23 03:14:28;;;;;;;7.60;6.90;;;;;;;17.67;80.90;98731.59;5022219;28;102502;-62
2021/07/23 03:17:08;;;;;;;11.02;9.93;;;;;;;17.56;81.92;98722.97;5020419;28;104377;-62
2021/07/23 03:19:37;;;;;;;9.43;8.45;;;;;;;17.55;82.08;98721.28;5019825;28;103339;-62
2021/07/23 03:22:06;;;;;;;10.15;9.10;;;;;;;17.51;82.29;98720.75;5013923;28;103897;-61
2021/07/23 03:24:37;;;;;;;10.95;9.88;;;;;;;17.47;82.46;98719.38;5002493;28;102694;-61
2021/07/23 03:27:10;;;;;;;10.68;8.45;;;;;;;17.52;82.07;98716.22;5019101;28;103357;-61
2021/07/23 03:29:48;;;;;;;10.40;9.27;;;;;;;17.52;82.17;98716.22;5003030;28;104429;-62
2021/07/23 03:32:17;;;;;;;11.65;9.93;;;;;;;17.37;83.18;98722.09;5019845;28;102975;-62
2021/07/23 03:34:45;;;;;;;9.18;8.27;;;;;;;17.40;82.51;98718.31;5020118;28;102950;-62
2021/07/23 03:37:24;;;;;;;9.25;7.72;;;;;;;17.37;82.85;98719.44;5019087;28;103345;-62
2021/07/23 03:39:55;;;;;;;8.38;7.57;;;;;;;17.42;82.45;98726.16;5021812;28;103511;-62
2021/07/23 03:42:32;;;;;;;9.20;7.43;;;;;;;17.44;81.97;98719.66;5019456;28;102952;-61
2021/07/23 03:45:29;;;;;;;9.90;8.55;;;;;;;17.40;82.28;98718.31;5010618;28;102864;-62
2021/07/23 03:48:04;;;;;;;7.88;7.13;;;;;;;17.37;82.78;98718.63;5020165;28;103397;-61
2021/07/23 03:50:39;;;;;;;9.65;8.75;;;;;;;17.27;83.30;98718.69;5016168;28;103176;-61
2021/07/23 03:53:08;;;;;;;7.70;7.00;;;;;;;17.31;82.98;98720.06;5018768;28;102577;-62
2021/07/23 03:55:45;;;;;;;7.18;6.47;;;;;;;17.35;82.73;98725.91;5020545;28;102601;-59
2021/07/23 03:58:25;;;;;;;6.75;6.15;;;;;;;17.38;81.94;98721.13;5020421;28;104601;-58
2021/07/23 04:00:53;;;;;;;9.07;8.18;;;;;;;17.37;82.33;98723.97;5021125;28;103114;-58
2021/07/23 04:03:21;;;;;;;9.20;8.30;;;;;;;17.27;83.21;98723.19;5019695;28;102722;-61
2021/07/23 04:05:51;;;;;;;9.65;8.65;;;;;;;17.22;83.69;98722.81;5020376;28;102822;-58
2021/07/23 04:08:20;;;;;;;11.73;10.52;;;;;;;17.13;84.51;98731.72;5017980;28;105452;-61
2021/07/23 04:10:48;;;;;;;9.52;8.63;;;;;;;17.15;84.12;98724.41;5020237;28;104391;-59
2021/07/23 04:13:18;;;;;;;10.63;9.25;;;;;;;16.99;85.15;98725.06;5020787;27;104357;-61
2021/07/23 04:15:48;;;;;;;9.65;8.23;;;;;;;17.12;83.68;98735.38;5017759;28;102614;-59
2021/07/23 04:18:17;;;;;;;9.32;7.78;;;;;;;17.20;83.31;98728.31;5022719;28;104477;-58
2021/07/23 04:21:11;;;;;;;8.57;7.72;;;;;;;17.21;83.24;98729.13;5009688;28;104552;-58
2021/07/23 04:23:39;;;;;;;6.97;6.28;;;;;;;17.27;83.35;98733.84;5020515;28;102629;-61
2021/07/23 04:26:08;;;;;;;8.98;7.40;;;;;;;17.28;83.47;98735.56;5020746;28;102670;-61
2021/07/23 04:28:37;;;;;;;8.82;7.93;;;;;;;17.26;83.59;98737.53;5020801;28;103520;-58
2021/07/23 04:31:07;;;;;;;10.73;9.73;;;;;;;17.23;84.13;98737.84;5020689;28;103923;-58
2021/07/23 04:33:43;;;;;;;8.85;8.05;;;;;;;17.23;84.22;98737.84;5021961;28;102617;-58
2021/07/23 04:36:35;;;;;;;10.30;9.27;;;;;;;17.24;84.54;98736.84;5018015;27;103185;-63
2021/07/23 04:39:21;;;;;;;8.68;7.72;;;;;;;17.21;84.72;98737.97;5013875;28;103255;-63
2021/07/23 04:41:51;;;;;;;9.85;8.43;;;;;;;17.32;84.11;98736.91;5016911;28;103214;-63
2021/07/23 04:44:19;;;;;;;8.50;7.70;;;;;;;17.39;84.12;98740.66;5015654;28;102778;-63
2021/07/23 04:46:55;;;;;;;9.63;8.65;;;;;;;17.45;83.74;98744.56;5016904;28;102852;-62
2021/07/23 04:49:24;;;;;;;11.32;10.23;;;;;;;17.47;84.43;98746.06;5017292;28;103899;-63
2021/07/23 04:51:52;;;;;;;10.02;9.07;;;;;;;17.47;84.04;98748.75;5012543;28;104291;-62
2021/07/23 04:54:42;;;;;;;8.43;7.63;;;;;;;17.54;83.84;98749.84;5015643;28;102578;-63
2021/07/23 04:57:29;;;;;;;8.50;7.70;;;;;;;17.66;83.53;98745.94;5019835;28;102620;-65
2021/07/23 05:00:02;;;;;;;8.00;7.30;;;;;;;17.71;83.44;98748.97;5019638;28;103305;-64
2021/07/23 05:02:31;;;;;;;10.40;9.32;;;;;;;17.73;83.45;98751.50;5019537;28;103419;-62
2021/07/23 05:05:06;;;;;;;9.57;8.65;;;;;;;17.84;82.81;98749.44;5019462;28;102609;-62
2021/07/23 05:07:34;;;;;;;7.90;7.18;;;;;;;17.95;82.84;98754.53;5003335;28;103087;-62
2021/07/23 05:10:03;;;;;;;10.07;9.07;;;;;;;18.02;82.68;98757.41;5016117;28;106780;-62
2021/07/23 05:12:32;;;;;;;10.30;8.82;;;;;;;18.18;81.97;98751.34;5016548;28;103209;-62
2021/07/23 05:15:02;;;;;;;13.25;9.73;;;;;;;18.22;81.81;98758.03;5019994;28;102684;-64
2021/07/23 05:17:34;;;;;;;11.43;7.70;;;;;;;18.35;81.10;98742.44;5021506;27;103256;-64
2021/07/23 05:20:03;;;;;;;9.82;8.48;;;;;;;18.39;81.47;98749.13;5018717;28;104879;-64
2021/07/23 05:22:32;;;;;;;7.82;7.07;;;;;;;18.53;80.18;98751.22;5015541;28;104598;-65
2021/07/23 05:25:03;;;;;;;9.32;8.30;;;;;;;18.72;79.79;98751.03;5015623;27;102630;-64
2021/07/23 05:27:31;;;;;;;9.35;8.45;;;;;;;18.89;78.76;98750.06;5024201;28;103544;-64
2021/07/23 05:29:59;;;;;;;9.52;8.05;;;;;;;19.05;77.32;98743.94;5020834;28;104402;-64
2021/07/23 05:32:27;;;;;;;10.38;8.93;;;;;;;19.10;77.34;98745.13;5023005;28;104320;-64
2021/07/23 05:34:57;;;;;;;9.38;8.40;;;;;;;19.10;76.74;98750.47;5023426;28;102915;-64
2021/07/23 05:37:25;;;;;;;11.60;9.73;;;;;;;18.97;76.47;98750.09;5020974;28;102786;-64
2021/07/23 05:39:52;;;;;;;11.18;10.10;;;;;;;19.06;76.71;98743.75;5024737;28;103966;-64
2021/07/23 05:42:20;;;;;;;16.58;12.27;;;;;;;18.86;77.81;98745.03;5024297;28;103026;-64
2021/07/23 05:44:48;;;;;;;14.98;11.80;;;;;;;18.76;77.82;98747.00;5024681;28;102513;-60
2021/07/23 05:47:18;;;;;;;13.25;11.85;;;;;;;18.87;77.73;98744.03;5024417;28;103312;-60
2021/07/23 05:49:47;;;;;;;12.68;11.38;;;;;;;19.00;77.48;98747.06;5024793;28;105326;-60
2021/07/23 05:52:16;;;;;;;15.00;11.88;;;;;;;18.96;77.42;98743.06;5022742;28;104249;-64
2021/07/23 05:54:44;;;;;;;12.90;11.57;;;;;;;19.02;78.32;98752.28;5025135;27;102722;-64
2021/07/23 05:57:12;;;;;;;13.10;11.68;;;;;;;19.16;77.52;98745.47;5022843;28;102690;-64
2021/07/23 05:59:41;;;;;;;11.65;10.32;;;;;;;19.35;76.26;98743.31;5025120;28;103357;-64
2021/07/23 06:02:09;;;;;;;13.82;11.82;;;;;;;19.34;76.53;98746.19;5023677;28;104245;-64
2021/07/23 06:04:37;;;;;;;13.38;11.60;;;;;;;19.34;76.17;98740.81;5024462;28;102627;-65
2021/07/23 06:07:09;;;;;;;12.82;11.45;;;;;;;19.08;77.60;98757.00;5023636;28;102720;-65
2021/07/23 06:09:38;;;;;;;10.88;9.77;;;;;;;19.38;77.03;98748.38;5010441;28;103829;-61
2021/07/23 06:12:07;;;;;;;12.85;10.55;;;;;;;19.48;76.32;98748.25;5021050;28;103228;-60
2021/07/23 06:14:35;;;;;;;10.05;9.02;;;;;;;19.72;75.59;98750.94;5023250;27;102647;-61
2021/07/23 06:17:04;;;;;;;9.40;8.40;;;;;;;20.02;74.73;98752.09;5023562;28;102643;-60
2021/07/23 06:19:32;;;;;;;14.48;11.73;;;;;;;19.81;75.80;98749.09;5023739;28;103330;-61
2021/07/23 06:22:00;;;;;;;13.95;12.40;;;;;;;19.33;76.70;98739.13;5022527;28;103258;-60
2021/07/23 06:24:28;;;;;;;12.57;11.38;;;;;;;19.52;77.17;98744.22;5022985;28;102902;-65
2021/07/23 06:26:57;;;;;;;8.65;7.85;;;;;;;20.05;75.03;98736.50;5020853;28;103038;-64
2021/07/23 06:29:26;;;;;;;11.75;10.27;;;;;;;20.31;74.51;98743.53;5020440;28;103383;-60
2021/07/23 06:31:58;;;;;;;10.65;9.27;;;;;;;20.48;74.64;98743.31;5001030;28;105735;-61
2021/07/23 06:34:26;;;;;;;13.98;11.70;;;;;;;20.33;75.02;98738.81;5021785;28;102576;-61
2021/07/23 06:36:54;;;;;;;13.85;12.45;;;;;;;20.17;74.49;98745.88;5020999;27;102777;-60
2021/07/23 06:39:22;;;;;;;14.38;12.88;;;;;;;19.74;76.47;98743.56;5018776;28;104476;-61
2021/07/23 06:41:50;;;;;;;11.35;10.23;;;;;;;20.30;75.27;98739.16;5025620;27;103335;-61
2021/07/23 06:44:22;;;;;;;12.35;9.52;;;;;;;20.66;73.89;98735.06;5025436;27;102688;-61
2021/07/23 06:46:50;;;;;;;9.52;8.52;;;;;;;20.89;73.18;98735.09;5023271;28;102706;-61
2021/07/23 06:49:18;;;;;;;13.63;11.90;;;;;;;20.43;72.03;98734.97;5022423;28;105867;-61
2021/07/23 06:51:46;;;;;;;16.33;12.52;;;;;;;20.12;75.58;98737.50;5025259;28;103090;-61
2021/07/23 06:54:14;;;;;;;10.25;9.25;;;;;;;20.47;74.10;98736.28;5023795;28;102922;-61
2021/07/23 06:56:42;;;;;;;14.32;11.95;;;;;;;20.94;72.52;98738.94;5025125;27;102674;-61
2021/07/23 06:59:10;;;;;;;11.98;10.68;;;;;;;21.05;71.15;98735.84;5023597;28;104371;-65
2021/07/23 07:01:40;;;;;;;10.93;9.55;;;;;;;21.39;70.68;98733.66;5022175;28;103237;-61
2021/07/23 07:04:08;;;;;;;13.40;11.93;;;;;;;21.21;69.52;98738.50;5025757;28;102806;-61
2021/07/23 07:06:36;;;;;;;12.40;10.35;;;;;;;21.53;68.88;98734.75;5021103;28;102717;-61
2021/07/23 07:09:04;;;;;;;9.32;8.50;;;;;;;21.81;67.78;98733.19;5024562;28;103475;-61
2021/07/23 07:11:32;;;;;;;10.38;9.38;;;;;;;22.00;67.44;98734.56;5023553;28;103126;-61
2021/07/23 07:14:00;;;;;;;9.75;8.75;;;;;;;21.92;68.07;98731.97;5024794;28;102684;-62
2021/07/23 07:16:28;;;;;;;12.93;11.30;;;;;;;21.87;66.75;98728.97;5020456;28;102776;-61
2021/07/23 07:18:58;;;;;;;11.85;9.57;;;;;;;21.79;66.33;98732.53;5020714;28;106253;-61
2021/07/23 07:21:26;;;;;;;13.30;11.73;;;;;;;21.83;66.82;98724.94;5022599;28;104352;-62
2021/07/23 07:23:54;;;;;;;11.93;9.60;;;;;;;22.03;66.98;98720.78;5023771;27;102765;-64
2021/07/23 07:26:22;;;;;;;11.07;9.88;;;;;;;22.38;66.23;98721.91;5023185;28;102733;-65
2021/07/23 07:28:50;;;;;;;11.35;9.65;;;;;;;22.14;64.52;98728.41;5022393;28;103556;-66
2021/07/23 07:31:18;;;;;;;10.82;8.23;;;;;;;22.47;64.90;98724.34;5021314;28;103631;-65
2021/07/23 07:33:46;;;;;;;10.73;9.35;;;;;;;22.64;65.05;98722.31;5022381;28;102612;-65
2021/07/23 07:36:18;;;;;;;10.82;9.27;;;;;;;22.69;63.66;98721.75;5020453;28;102654;-64
2021/07/23 07:38:46;;;;;;;13.43;12.02;;;;;;;22.10;66.19;98723.53;5022546;28;104541;-65
2021/07/23 07:41:16;;;;;;;13.30;11.48;;;;;;;22.48;64.76;98719.78;5022111;27;103133;-61
2021/07/23 07:43:45;;;;;;;11.73;10.52;;;;;;;23.12;64.03;98714.63;5021977;28;103014;-61
2021/07/23 07:46:13;;;;;;;10.98;9.88;;;;;;;23.50;64.05;98721.50;5021713;28;102612;-65
2021/07/23 07:48:41;;;;;;;10.75;9.65;;;;;;;23.55;61.51;98716.38;5023287;28;103343;-65
2021/07/23 07:51:09;;;;;;;11.60;9.48;;;;;;;23.67;62.08;98722.91;5024725;28;103194;-66
2021/07/23 07:53:44;;;;;;;11.73;10.52;;;;;;;24.17;60.90;98711.94;5023621;28;102738;-65
2021/07/23 07:56:13;;;;;;;11.95;10.75;;;;;;;24.18;61.60;98712.78;5013270;28;102668;-65
2021/07/23 07:58:42;;;;;;;12.07;10.80;;;;;;;24.22;60.49;98706.78;5023751;28;104599;-65
2021/07/23 08:01:14;;;;;;;9.63;8.80;;;;;;;24.92;59.26;98707.63;5024668;27;103176;-65
2021/07/23 08:03:43;;;;;;;9.77;8.77;;;;;;;25.45;58.40;98712.16;5022433;28;102687;-65
2021/07/23 08:06:19;;;;;;;11.75;9.85;;;;;;;25.66;57.12;98706.59;5023739;27;102612;-65
2021/07/23 08:08:51;;;;;;;10.02;9.05;;;;;;;25.89;57.29;98707.03;5023509;28;103345;-65
2021/07/23 08:11:19;;;;;;;11.57;10.00;;;;;;;26.01;57.05;98709.13;5021606;28;103158;-65
2021/07/23 08:13:47;;;;;;;9.55;8.60;;;;;;;26.30;57.91;98703.31;5021663;28;103077;-65
2021/07/23 08:16:16;;;;;;;12.23;10.77;;;;;;;26.41;56.46;98699.94;5023763;28;103118;-65
2021/07/23 08:18:44;;;;;;;15.32;11.90;;;;;;;25.94;57.12;98699.13;5022380;28;104518;-65
2021/07/23 08:21:12;;;;;;;12.73;11.52;;;;;;;26.13;55.75;98696.63;5022474;28;105429;-65
2021/07/23 08:23:40;;;;;;;11.52;10.45;;;;;;;26.87;54.07;98689.81;5022131;28;102714;-65
2021/07/23 08:26:09;;;;;;;15.98;12.07;;;;;;;26.32;54.36;98695.78;5019928;28;103847;-61
2021/07/23 08:28:37;;;;;;;10.38;9.23;;;;;;;26.96;55.43;98691.25;5019303;28;103296;-60
2021/07/23 08:31:05;;;;;;;12.57;11.05;;;;;;;27.30;52.95;98689.19;5020187;28;102821;-60
2021/07/23 08:33:33;;;;;;;12.15;10.75;;;;;;;26.25;56.01;98684.13;5024085;28;102544;-60
2021/07/23 08:36:02;;;;;;;13.48;11.98;;;;;;;25.02;58.08;98691.84;5019779;28;102822;-60
2021/07/23 08:38:30;;;;;;;15.27;12.73;;;;;;;25.45;55.94;98693.22;5020712;28;103613;-60
2021/07/23 08:40:58;;;;;;;12.45;11.25;;;;;;;25.81;56.50;98688.31;5022263;28;104276;-60
2021/07/23 08:43:28;;;;;;;12.43;11.20;;;;;;;27.00;53.76;98678.09;5021824;28;102692;-60
2021/07/23 08:45:56;;;;;;;11.15;10.05;;;;;;;27.70;53.41;98678.94;5018804;28;102623;-61
2021/07/23 08:48:24;;;;;;;10.63;9.57;;;;;;;28.13;51.45;98677.97;5020320;28;103321;-61
2021/07/23 08:50:53;;;;;;;10.50;9.32;;;;;;;27.28;50.67;98670.44;5020883;28;103182;-60
2021/07/23 08:53:21;;;;;;;10.63;9.18;;;;;;;28.03;50.32;98674.94;5022944;28;103192;-61
2021/07/23 08:55:49;;;;;;;11.65;10.45;;;;;;;28.31;49.88;98671.75;5021548;28;102822;-61
2021/07/23 08:58:18;;;;;;;12.88;10.63;;;;;;;27.00;50.18;98678.91;5022753;28;103330;-61
2021/07/23 09:00:48;;;;;;;12.15;10.82;;;;;;;27.42;50.83;98672.06;5020467;27;103184;-60
2021/07/23 09:03:16;;;;;;;12.93;11.55;;;;;;;28.00;50.46;98680.78;5025820;28;102713;-61
2021/07/23 09:05:45;;;;;;;11.00;10.00;;;;;;;28.30;51.14;98675.50;5024851;28;102609;-61
2021/07/23 09:08:14;;;;;;;14.25;12.80;;;;;;;26.38;52.22;98681.41;5021973;28;103323;-62
2021/07/23 09:10:44;;;;;;;14.20;12.30;;;;;;;27.21;51.56;98672.34;5018407;28;104273;-61
2021/07/23 09:13:20;;;;;;;14.48;11.23;;;;;;;28.82;49.84;98665.97;5017501;28;102805;-64
2021/07/23 09:15:50;;;;;;;12.05;10.50;;;;;;;28.95;48.25;98665.78;5023963;28;102682;-61
2021/07/23 09:18:27;;;;;;;13.35;11.88;;;;;;;27.93;48.91;98671.84;5022037;28;103327;-61
2021/07/23 09:20:56;;;;;;;12.90;10.77;;;;;;;28.67;51.46;98665.50;5014053;28;103356;-61
2021/07/23 09:23:30;;;;;;;12.20;11.00;;;;;;;29.68;48.32;98665.59;5021623;28;102594;-62
2021/07/23 09:26:02;;;;;;;11.13;9.65;;;;;;;29.61;46.28;98651.28;5022906;28;102680;-61
2021/07/23 09:28:32;;;;;;;11.05;9.88;;;;;;;28.79;48.04;98658.25;5021861;28;103237;-61
2021/07/23 09:31:03;;;;;;;12.80;11.57;;;;;;;29.77;47.09;98661.47;5018908;28;103172;-61
2021/07/23 09:33:34;;;;;;;13.82;10.32;;;;;;;30.65;46.61;98647.78;5024403;28;102570;-62
2021/07/23 09:36:04;;;;;;;15.25;10.77;;;;;;;30.03;45.25;98652.91;5024223;28;103137;-62
2021/07/23 09:38:37;;;;;;;11.85;9.98;;;;;;;28.99;47.41;98661.56;5024891;28;103292;-62
2021/07/23 09:41:07;;;;;;;11.38;10.27;;;;;;;29.69;47.58;98651.75;5023899;28;103422;-62
2021/07/23 09:43:37;;;;;;;12.82;9.43;;;;;;;30.82;44.86;98648.69;5023441;28;103007;-62
2021/07/23 09:46:26;;;;;;;12.20;11.10;;;;;;;28.55;46.42;98649.09;5023689;28;102713;-62
2021/07/23 09:49:00;;;;;;;12.52;9.57;;;;;;;29.26;46.72;98643.00;5022995;28;103201;-62
2021/07/23 09:51:29;;;;;;;11.40;10.13;;;;;;;28.35;47.10;98651.19;5025992;28;103177;-61
2021/07/23 09:53:58;;;;;;;13.65;9.90;;;;;;;28.49;48.71;98647.28;5026019;28;102642;-64
2021/07/23 09:56:27;;;;;;;12.30;10.50;;;;;;;29.07;46.15;98642.22;5021271;28;102906;-64
2021/07/23 09:59:02;;;;;;;11.48;10.23;;;;;;;27.01;46.93;98647.22;5023707;28;103324;-64
2021/07/23 10:01:38;;;;;;;10.35;9.32;;;;;;;27.91;46.91;98641.38;5021423;28;103139;-64
2021/07/23 10:04:11;;;;;;;8.93;8.02;;;;;;;28.93;47.16;98640.72;5022381;28;103969;-64
2021/07/23 10:06:48;;;;;;;10.45;9.40;;;;;;;28.50;45.84;98631.81;5024284;28;102601;-64
2021/07/23 10:09:23;;;;;;;8.15;7.40;;;;;;;29.90;44.64;98623.16;5023111;28;104490;-64
2021/07/23 10:11:51;;;;;;;8.52;7.70;;;;;;;31.24;41.75;98617.34;5022019;27;103426;-64
2021/07/23 10:14:23;;;;;;;9.30;8.40;;;;;;;31.35;42.16;98615.63;5023163;28;102572;-64
2021/07/23 10:16:52;;;;;;;8.45;7.75;;;;;;;31.65;40.16;98618.06;5023458;28;102671;-64
2021/07/23 10:19:22;;;;;;;9.50;8.60;;;;;;;31.43;42.11;98607.88;5021730;28;103371;-64
2021/07/23 10:21:56;;;;;;;15.50;10.85;;;;;;;28.56;43.92;98603.75;5023441;28;103146;-64
2021/07/23 10:24:26;;;;;;;9.60;8.70;;;;;;;30.09;44.54;98594.72;5022276;28;103076;-64
2021/07/23 10:26:54;;;;;;;11.43;10.18;;;;;;;28.69;45.55;98592.72;5023083;28;103055;-64
2021/07/23 10:29:45;;;;;;;11.57;9.48;;;;;;;29.01;45.63;98602.34;5023233;28;103373;-62
2021/07/23 10:32:33;;;;;;;10.98;9.15;;;;;;;30.57;44.46;98586.25;5021417;28;103495;-64
2021/07/23 10:35:29;;;;;;;11.32;10.05;;;;;;;29.82;45.17;98588.13;5024888;28;102540;-61
2021/07/23 10:37:59;;;;;;;10.68;9.63;;;;;;;28.63;45.76;98594.47;5020136;28;102759;-62
2021/07/23 10:40:35;;;;;;;10.88;9.88;;;;;;;29.36;43.62;98585.31;5022301;28;103289;-62
2021/07/23 10:43:23;;;;;;;8.90;8.10;;;;;;;30.95;43.24;98566.59;5020413;28;104331;-65
2021/07/23 10:45:51;;;;;;;8.98;8.15;;;;;;;30.66;44.19;98573.91;5023187;28;102625;-64
2021/07/23 10:48:51;;;;;;;9.40;8.52;;;;;;;31.65;43.89;98563.47;5018881;28;102641;-65
2021/07/23 10:51:50;;;;;;;11.32;10.38;;;;;;;29.24;46.31;98568.97;5022612;28;103434;-64
2021/07/23 10:54:19;;;;;;;10.68;9.63;;;;;;;30.21;44.13;98560.13;5017784;28;103160;-65
2021/07/23 10:57:12;;;;;;;9.48;8.57;;;;;;;31.52;44.28;98559.97;5022084;28;102640;-65
2021/07/23 10:59:51;;;;;;;9.23;8.32;;;;;;;30.66;42.77;98557.56;5017250;28;102603;-65
2021/07/23 11:02:42;;;;;;;10.57;9.60;;;;;;;31.44;42.91;98546.72;5019933;28;104542;-65
2021/07/23 11:05:17;;;;;;;9.82;8.93;;;;;;;30.82;42.73;98554.03;5021885;28;104435;-65
2021/07/23 11:07:46;;;;;;;11.85;9.98;;;;;;;30.58;44.09;98554.38;5022430;28;102650;-65
2021/07/23 11:10:20;;;;;;;10.65;9.75;;;;;;;29.27;44.38;98553.03;5020873;28;102683;-64
2021/07/23 11:12:49;;;;;;;9.88;8.98;;;;;;;31.43;43.56;98538.81;5018812;28;103332;-65
2021/07/23 11:15:18;;;;;;;10.88;9.82;;;;;;;31.32;42.82;98545.16;5016510;28;103223;-65
2021/07/23 11:17:49;;;;;;;10.27;8.95;;;;;;;31.87;42.22;98542.50;5021321;28;102870;-65
2021/07/23 11:20:23;;;;;;;10.55;9.38;;;;;;;32.24;39.72;98535.41;5023040;28;102653;-65
2021/07/23 11:22:52;;;;;;;10.02;9.13;;;;;;;31.82;41.60;98529.63;5019762;28;104315;-65
2021/07/23 11:25:21;;;;;;;10.43;9.52;;;;;;;31.84;39.28;98524.72;5022570;28;104054;-65
2021/07/23 11:27:53;;;;;;;9.90;9.00;;;;;;;32.52;39.74;98529.75;5022258;28;102933;-65
2021/07/23 11:30:24;;;;;;;9.30;8.40;;;;;;;32.60;40.91;98523.84;5024457;28;102691;-64
2021/07/23 11:32:54;;;;;;;10.93;9.80;;;;;;;30.89;41.25;98516.56;5021925;27;103271;-65
2021/07/23 11:35:25;;;;;;;13.60;10.40;;;;;;;29.91;42.82;98515.91;5023816;28;103195;-65
2021/07/23 11:37:55;;;;;;;10.73;9.73;;;;;;;28.59;44.83;98516.31;5023023;28;102657;-62